sensor_id;sensor_type;location;lat;lon;timestamp;temperature;humidity
30290;DHT22;17105;55.652;37.710;2023-02-12T00:00:31;4.20;91.00
30290;DHT22;17105;55.652;37.710;2023-02-12T00:01:08;4.20;91.10
30290;DHT22;17105;55.652;37.710;2023-02-12T00:01:43;4.20;91.10
30290;DHT22;17105;55.652;37.710;2023-02-12T00:02:19;4.20;91.20
30290;DHT22;17105;55.652;37.710;2023-02-12T00:02:52;4.20;91.20
30290;DHT22;17105;55.652;37.710;2023-02-12T00:03:27;4.20;91.20
30290;DHT22;17105;55.652;37.710;2023-02-12T00:04:02;4.20;91.20
30290;DHT22;17105;55.652;37.710;2023-02-12T00:04:38;4.20;91.20
30290;DHT22;17105;55.652;37.710;2023-02-12T00:05:11;4.20;91.30
30290;DHT22;17105;55.652;37.710;2023-02-12T00:05:48;4.20;91.30
30290;DHT22;17105;55.652;37.710;2023-02-12T00:06:21;4.20;91.30
30290;DHT22;17105;55.652;37.710;2023-02-12T00:06:56;4.20;91.30
30290;DHT22;17105;55.652;37.710;2023-02-12T00:07:30;4.30;91.30
30290;DHT22;17105;55.652;37.710;2023-02-12T00:08:06;4.30;91.30
30290;DHT22;17105;55.652;37.710;2023-02-12T00:08:39;4.30;91.30
30290;DHT22;17105;55.652;37.710;2023-02-12T00:09:14;4.30;91.30
30290;DHT22;17105;55.652;37.710;2023-02-12T00:09:50;4.30;91.40
30290;DHT22;17105;55.652;37.710;2023-02-12T00:10:24;4.30;91.40
30290;DHT22;17105;55.652;37.710;2023-02-12T00:10:58;4.30;91.50
30290;DHT22;17105;55.652;37.710;2023-02-12T00:11:32;4.30;91.60
30290;DHT22;17105;55.652;37.710;2023-02-12T00:12:06;4.20;91.60
30290;DHT22;17105;55.652;37.710;2023-02-12T00:12:40;4.20;91.70
30290;DHT22;17105;55.652;37.710;2023-02-12T00:13:14;4.20;91.70
30290;DHT22;17105;55.652;37.710;2023-02-12T00:13:48;4.20;91.70
30290;DHT22;17105;55.652;37.710;2023-02-12T00:14:22;4.20;91.90
30290;DHT22;17105;55.652;37.710;2023-02-12T00:14:58;4.20;91.70
30290;DHT22;17105;55.652;37.710;2023-02-12T00:15:32;4.20;91.70
30290;DHT22;17105;55.652;37.710;2023-02-12T00:16:09;4.20;91.70
30290;DHT22;17105;55.652;37.710;2023-02-12T00:16:46;4.20;91.70
30290;DHT22;17105;55.652;37.710;2023-02-12T00:17:20;4.10;91.70
30290;DHT22;17105;55.652;37.710;2023-02-12T00:17:55;4.10;91.70
30290;DHT22;17105;55.652;37.710;2023-02-12T00:18:29;4.10;91.80
30290;DHT22;17105;55.652;37.710;2023-02-12T00:19:04;4.10;91.80
30290;DHT22;17105;55.652;37.710;2023-02-12T00:19:38;4.00;91.80
30290;DHT22;17105;55.652;37.710;2023-02-12T00:20:12;4.00;91.80
30290;DHT22;17105;55.652;37.710;2023-02-12T00:20:46;4.00;91.80
30290;DHT22;17105;55.652;37.710;2023-02-12T00:21:21;4.00;91.80
30290;DHT22;17105;55.652;37.710;2023-02-12T00:21:55;4.00;91.80
30290;DHT22;17105;55.652;37.710;2023-02-12T00:22:29;4.00;91.80
30290;DHT22;17105;55.652;37.710;2023-02-12T00:23:04;4.00;91.80
30290;DHT22;17105;55.652;37.710;2023-02-12T00:23:38;4.00;91.80
30290;DHT22;17105;55.652;37.710;2023-02-12T00:24:13;4.00;91.90
30290;DHT22;17105;55.652;37.710;2023-02-12T00:24:49;4.00;91.90
30290;DHT22;17105;55.652;37.710;2023-02-12T00:25:23;4.00;91.80
30290;DHT22;17105;55.652;37.710;2023-02-12T00:25:57;3.90;91.80
30290;DHT22;17105;55.652;37.710;2023-02-12T00:26:31;3.90;91.80
30290;DHT22;17105;55.652;37.710;2023-02-12T00:27:06;3.90;91.80
30290;DHT22;17105;55.652;37.710;2023-02-12T00:27:40;3.90;91.70
30290;DHT22;17105;55.652;37.710;2023-02-12T00:28:15;3.90;91.70
30290;DHT22;17105;55.652;37.710;2023-02-12T00:28:48;3.90;91.60
30290;DHT22;17105;55.652;37.710;2023-02-12T00:29:22;3.80;91.50
30290;DHT22;17105;55.652;37.710;2023-02-12T00:29:57;3.80;91.50
30290;DHT22;17105;55.652;37.710;2023-02-12T00:30:30;3.80;91.40
30290;DHT22;17105;55.652;37.710;2023-02-12T00:31:06;3.80;91.50
30290;DHT22;17105;55.652;37.710;2023-02-12T00:31:41;3.80;91.50
30290;DHT22;17105;55.652;37.710;2023-02-12T00:32:15;3.70;91.60
30290;DHT22;17105;55.652;37.710;2023-02-12T00:32:55;3.70;91.40
30290;DHT22;17105;55.652;37.710;2023-02-12T00:33:29;3.70;91.30
30290;DHT22;17105;55.652;37.710;2023-02-12T00:34:03;3.70;91.20
30290;DHT22;17105;55.652;37.710;2023-02-12T00:34:38;3.70;91.20
30290;DHT22;17105;55.652;37.710;2023-02-12T00:35:13;3.70;91.20
30290;DHT22;17105;55.652;37.710;2023-02-12T00:35:54;3.70;91.10
30290;DHT22;17105;55.652;37.710;2023-02-12T00:36:29;3.70;91.10
30290;DHT22;17105;55.652;37.710;2023-02-12T00:37:05;3.70;91.00
30290;DHT22;17105;55.652;37.710;2023-02-12T00:37:38;3.70;90.90
30290;DHT22;17105;55.652;37.710;2023-02-12T00:38:13;3.70;90.90
30290;DHT22;17105;55.652;37.710;2023-02-12T00:38:49;3.60;90.80
30290;DHT22;17105;55.652;37.710;2023-02-12T00:39:23;3.60;90.80
30290;DHT22;17105;55.652;37.710;2023-02-12T00:39:58;3.60;90.80
30290;DHT22;17105;55.652;37.710;2023-02-12T00:40:30;3.60;90.80
30290;DHT22;17105;55.652;37.710;2023-02-12T00:41:04;3.60;91.00
30290;DHT22;17105;55.652;37.710;2023-02-12T00:41:39;3.50;90.80
30290;DHT22;17105;55.652;37.710;2023-02-12T00:42:12;3.50;90.70
30290;DHT22;17105;55.652;37.710;2023-02-12T00:42:45;3.50;90.70
30290;DHT22;17105;55.652;37.710;2023-02-12T00:43:21;3.50;90.70
30290;DHT22;17105;55.652;37.710;2023-02-12T00:43:55;3.50;90.60
30290;DHT22;17105;55.652;37.710;2023-02-12T00:44:29;3.50;90.90
30290;DHT22;17105;55.652;37.710;2023-02-12T00:45:05;3.50;90.70
30290;DHT22;17105;55.652;37.710;2023-02-12T00:45:39;3.40;90.60
30290;DHT22;17105;55.652;37.710;2023-02-12T00:46:12;3.40;90.50
30290;DHT22;17105;55.652;37.710;2023-02-12T00:46:48;3.40;90.50
30290;DHT22;17105;55.652;37.710;2023-02-12T00:47:23;3.40;90.50
30290;DHT22;17105;55.652;37.710;2023-02-12T00:47:56;3.30;90.50
30290;DHT22;17105;55.652;37.710;2023-02-12T00:48:30;3.30;90.50
30290;DHT22;17105;55.652;37.710;2023-02-12T00:49:04;3.30;90.50
30290;DHT22;17105;55.652;37.710;2023-02-12T00:49:37;3.30;90.50
30290;DHT22;17105;55.652;37.710;2023-02-12T00:50:13;3.20;90.50
30290;DHT22;17105;55.652;37.710;2023-02-12T00:50:49;3.20;90.40
30290;DHT22;17105;55.652;37.710;2023-02-12T00:51:23;3.20;90.50
30290;DHT22;17105;55.652;37.710;2023-02-12T00:51:58;3.10;90.40
30290;DHT22;17105;55.652;37.710;2023-02-12T00:52:31;3.10;90.40
30290;DHT22;17105;55.652;37.710;2023-02-12T00:53:05;3.10;90.50
30290;DHT22;17105;55.652;37.710;2023-02-12T00:53:39;3.10;90.50
30290;DHT22;17105;55.652;37.710;2023-02-12T00:54:14;3.10;90.50
30290;DHT22;17105;55.652;37.710;2023-02-12T00:54:48;3.10;90.50
30290;DHT22;17105;55.652;37.710;2023-02-12T00:55:22;3.10;90.50
30290;DHT22;17105;55.652;37.710;2023-02-12T00:55:55;3.10;90.50
30290;DHT22;17105;55.652;37.710;2023-02-12T00:56:30;3.10;90.50
30290;DHT22;17105;55.652;37.710;2023-02-12T00:57:03;3.10;90.50
30290;DHT22;17105;55.652;37.710;2023-02-12T00:57:38;3.00;90.40
30290;DHT22;17105;55.652;37.710;2023-02-12T00:58:12;3.00;90.40
30290;DHT22;17105;55.652;37.710;2023-02-12T00:58:49;3.00;90.40
30290;DHT22;17105;55.652;37.710;2023-02-12T00:59:24;2.90;90.40
30290;DHT22;17105;55.652;37.710;2023-02-12T00:59:59;3.00;90.40
30290;DHT22;17105;55.652;37.710;2023-02-12T01:00:34;3.00;90.30
30290;DHT22;17105;55.652;37.710;2023-02-12T01:01:08;2.90;90.30
30290;DHT22;17105;55.652;37.710;2023-02-12T01:01:43;2.90;90.30
30290;DHT22;17105;55.652;37.710;2023-02-12T01:02:17;2.90;90.30
30290;DHT22;17105;55.652;37.710;2023-02-12T01:02:52;2.90;90.30
30290;DHT22;17105;55.652;37.710;2023-02-12T01:03:27;2.90;90.30
30290;DHT22;17105;55.652;37.710;2023-02-12T01:04:00;2.90;90.30
30290;DHT22;17105;55.652;37.710;2023-02-12T01:04:33;2.90;90.30
30290;DHT22;17105;55.652;37.710;2023-02-12T01:05:08;2.80;90.30
